Terminal Aerodrome Forecast
Issued by NWS

Current Version | Previous Version | Text Only | Print | Product List | Glossary Off
Versions: 1 2 3 4 5 6 7 8 9 10 11 12 13 14 15 16 17 18 19 20 21 22 23 24 25 26 27 28 29 30 31 32 33 34 35 36 37 38 39 40

000
FTUS41 KRNK 192324
TAFLWB
TAF
KLWB 192324Z 2000/2024 VRB03KT P6SM SKC
     FM200800 00000KT 4SM BR FEW250
     FM201000 00000KT 1SM BR FEW001 SCT250
      TEMPO 2010/2013 1/4SM FG OVC001
     FM201300 00000KT 4SM BR FEW250
     FM201400 VRB03KT P6SM FEW080=

USA.gov is the U.S. government's official web portal to all federal, state and local government web resources and services.